createdAt,value
2022-09-29T00:03:11.586Z,7.619942124790971
2022-09-29T00:11:43.269Z,7.565749764841137
2022-09-29T00:23:46.567Z,7.506890807901337
2022-09-29T00:30:19.049Z,7.470594690635451
2022-09-29T00:36:50.769Z,7.344543007943143
2022-09-29T00:43:23.351Z,7.265255278010033
2022-09-29T00:49:55.180Z,7.209941994147158
2022-09-29T01:03:59.025Z,7.113587609740802
2022-09-29T01:18:25.817Z,7.0422698056020065
2022-09-29T01:25:06.149Z,7.021284489966555
2022-09-29T01:31:37.639Z,6.922304164924749
2022-09-29T01:41:45.942Z,6.892296587583613
2022-09-29T01:59:10.678Z,6.8129487614966555
2022-09-29T02:09:54.044Z,6.754204117892977
2022-09-29T02:17:26.902Z,6.773866664924749
2022-09-29T02:28:00.238Z,6.671051290760869
2022-09-29T02:40:40.230Z,6.662320364757526
2022-09-29T02:47:12.005Z,6.599429086538461
2022-09-29T02:53:45.015Z,6.573755617683946
2022-09-29T03:00:17.053Z,6.570683528428094
2022-09-29T03:16:16.470Z,6.5124176943979935
2022-09-29T03:22:55.499Z,6.506643891095318
2022-09-29T03:29:26.763Z,6.4602568457357865
2022-09-29T03:35:57.331Z,6.41971349811873
2022-09-29T03:42:29.325Z,6.39093266617893
2022-09-29T03:49:00.426Z,6.413473949623746
2022-09-29T03:55:33.656Z,6.39058450041806
2022-09-29T04:02:07.421Z,6.342548076923077
2022-09-29T04:13:22.137Z,6.280132342182274
2022-09-29T04:19:55.377Z,6.2601248954849495
2022-09-29T04:26:28.396Z,6.316187421613712
2022-09-29T04:35:40.337Z,6.2055425637541815
2022-09-29T04:45:45.518Z,6.189457697533444
2022-09-29T04:52:19.587Z,6.087451008570234
2022-09-29T04:58:52.645Z,6.102193509615383
2022-09-29T05:05:24.718Z,6.094337243938127
2022-09-29T05:12:17.266Z,6.108587871028428
2022-09-29T05:21:55.573Z,6.064303537834448
2022-09-29T05:28:39.633Z,6.086778846153846
2022-09-29T05:35:11.308Z,6.089754258988294
2022-09-29T05:41:42.885Z,6.111859845317725
2022-09-29T05:48:34.556Z,6.118879337374582
2022-09-29T05:59:43.339Z,6.13730076818562
2022-09-29T06:06:15.621Z,6.1579451034699
2022-09-29T06:12:48.142Z,6.248291832148829
2022-09-29T06:25:43.908Z,6.367316837374582
2022-09-29T06:32:15.264Z,6.452944711538462
2022-09-29T06:38:49.210Z,6.55326870819398
2022-09-29T06:45:23.082Z,6.667463811663879
2022-09-29T06:57:12.634Z,6.857054765886287
2022-09-29T07:03:44.438Z,6.98986791910535
2022-09-29T07:10:16.100Z,7.052868284908027
2022-09-29T07:16:49.092Z,7.166370976170568
2022-09-29T07:29:17.422Z,7.400883152173914
2022-09-29T07:35:50.436Z,7.538524247491639
2022-09-29T07:42:23.556Z,7.6336427414297665
2022-09-29T07:48:55.131Z,7.773962034908027
2022-09-29T07:57:08.503Z,8.075760346989966
2022-09-29T08:03:41.433Z,8.134184913252508
2022-09-29T08:10:17.428Z,8.46928433319398
2022-09-29T08:20:34.916Z,8.657185409698997
2022-09-29T08:27:19.295Z,8.918793112458193
2022-09-29T08:34:03.924Z,9.35134693770903
2022-09-29T08:40:35.313Z,9.535388795986623
2022-09-29T09:01:41.225Z,10.396647679765886
2022-09-29T09:08:13.350Z,10.651274430392977
2022-09-29T09:20:34.054Z,10.857680549749164
2022-09-29T09:27:20.050Z,10.832762202132107
2022-09-29T09:34:51.091Z,10.650745322951506
2022-09-29T09:41:23.777Z,10.72079718854515
2022-09-29T09:54:13.828Z,10.881821566680602
2022-09-29T10:00:46.737Z,11.128838315217392
2022-09-29T10:07:19.818Z,11.405596127717391
2022-09-29T10:13:52.849Z,11.48766918373746
2022-09-29T10:20:26.471Z,11.672728757316053
2022-09-29T10:38:08.646Z,12.366084866220735
2022-09-29T10:44:42.861Z,12.303944789924747
2022-09-29T10:51:15.683Z,12.209825721153845
2022-09-29T10:57:42.811Z,12.129647653637123
2022-09-29T11:04:09.720Z,12.159760399247492
2022-09-29T11:16:51.416Z,12.3686801055602
2022-09-29T11:29:42.059Z,12.437955946906353
2022-09-29T11:38:17.060Z,13.277187630643812
2022-09-29T11:44:44.350Z,13.334420072115384
2022-09-29T11:51:11.423Z,13.1122975020903
2022-09-29T12:01:23.814Z,12.726084343645486
2022-09-29T12:07:51.790Z,12.772460284280937
2022-09-29T12:14:19.096Z,12.88326452759197
2022-09-29T12:20:46.557Z,13.100634928929766
2022-09-29T12:27:19.608Z,13.146130983486623
2022-09-29T12:33:46.438Z,12.893704927884615
2022-09-29T12:46:30.404Z,12.908705450459866
2022-09-29T12:57:22.407Z,12.97950329222408
2022-09-29T13:08:35.579Z,13.081185331312708
2022-09-29T13:15:02.343Z,13.029412494774249
2022-09-29T13:21:29.926Z,13.033447428929767
2022-09-29T13:28:08.378Z,13.153498641304347
2022-09-29T13:34:39.215Z,13.108080973035117
2022-09-29T13:43:12.228Z,13.229643081103676
2022-09-29T13:59:40.759Z,13.13797684991639
2022-09-29T14:06:29.303Z,13.069847408026755
2022-09-29T14:13:06.460Z,13.079657451923078
2022-09-29T14:19:34.531Z,13.141046979515052
2022-09-29T14:28:18.630Z,13.132181490384614
2022-09-29T14:34:45.630Z,13.06113085284281
2022-09-29T14:41:12.461Z,13.06281877090301
2022-09-29T14:53:05.275Z,12.949390546613712
2022-09-29T14:59:32.449Z,12.881411345108695
2022-09-29T15:05:58.633Z,12.809077132107024
2022-09-29T15:17:33.590Z,12.736051160117057
2022-09-29T15:24:07.023Z,12.727912050585283
2022-09-29T15:38:22.725Z,12.64146699937291
2022-09-29T15:44:49.709Z,12.572911005434783
2022-09-29T15:51:17.108Z,12.535424069816054
2022-09-29T16:06:26.462Z,12.483727659908027
2022-09-29T16:12:53.883Z,12.40659098035117
2022-09-29T16:23:09.011Z,12.236825877926423
2022-09-29T16:29:36.842Z,12.150500365802676
2022-09-29T16:36:04.482Z,12.014004363503345
2022-09-29T16:42:32.935Z,11.901871472617056
2022-09-29T16:49:00.817Z,11.79509693770903
2022-09-29T16:55:28.730Z,11.739475987667225
2022-09-29T17:01:55.424Z,11.700904055183946
2022-09-29T17:12:41.069Z,11.604948787625418
2022-09-29T17:23:22.896Z,11.487270720108697
2022-09-29T17:29:50.981Z,11.461965013586955
2022-09-29T17:37:00.793Z,11.389743154264215
2022-09-29T17:43:28.776Z,11.34497347930602
2022-09-29T17:49:56.263Z,11.278407843854515
2022-09-29T17:56:24.269Z,11.213127743520065
2022-09-29T18:02:51.819Z,11.201916544732441
2022-09-29T18:12:23.224Z,11.122777095526757
2022-09-29T18:18:54.415Z,11.093358721780938
2022-09-29T18:25:24.394Z,11.036925167224082
2022-09-29T18:31:53.299Z,10.97580149979097
2022-09-29T18:38:23.732Z,10.970739052048495
2022-09-29T18:44:52.631Z,10.982181490384617
2022-09-29T18:57:01.402Z,10.957636784071907
2022-09-29T19:03:30.284Z,10.957764161789298
2022-09-29T19:09:58.763Z,10.931329692725754
2022-09-29T19:16:50.087Z,10.892167903428094
2022-09-29T19:23:24.784Z,10.887287703804347
2022-09-29T19:29:52.049Z,10.865304922658861
2022-09-29T19:42:31.390Z,10.834979227633777
2022-09-29T19:49:37.833Z,10.80095827236622
2022-09-29T20:01:01.669Z,10.821296901128763
2022-09-29T20:07:57.451Z,10.799753736413043
2022-09-29T20:18:34.652Z,10.749184129389631
2022-09-29T20:25:02.277Z,10.733251463210703
2022-09-29T20:32:00.157Z,10.696594115802673
2022-09-29T20:38:28.119Z,10.663133622491639
2022-09-29T20:45:32.621Z,10.620057744565218
2022-09-29T20:51:59.572Z,10.631949597617057
2022-09-29T20:58:26.686Z,10.626226745401338
2022-09-29T21:07:24.282Z,10.53305745714883
2022-09-29T21:13:54.246Z,10.533694998954848
2022-09-29T21:23:17.125Z,10.516576740175585
2022-09-29T21:29:44.543Z,10.456108904682274
2022-09-29T21:37:53.540Z,10.391141696279263
2022-09-29T21:44:21.047Z,10.38555602006689
2022-09-29T21:50:48.674Z,10.407562317098662
2022-09-29T21:57:58.995Z,10.409142454013377
2022-09-29T22:14:30.605Z,10.384301839464882
2022-09-29T22:20:57.698Z,10.379644387541806
2022-09-29T22:27:25.369Z,10.372460284280935
2022-09-29T22:33:52.434Z,10.33542733591137
2022-09-29T22:40:20.120Z,10.326589281981605
2022-09-29T22:46:47.040Z,10.330483774038461
2022-09-29T22:53:34.990Z,10.250821749581938
2022-09-29T23:00:02.100Z,10.199189355142138
2022-09-29T23:06:30.246Z,10.179651572951505
2022-09-29T23:12:57.191Z,10.145525449414716
2022-09-29T23:19:24.383Z,10.134854462792642
2022-09-29T23:25:51.942Z,10.087808319397993
2022-09-29T23:32:19.135Z,10.060980612458193
2022-09-29T23:38:46.717Z,10.02563754180602
2022-09-29T23:45:13.872Z,10.048140938545151
2022-09-29T23:51:41.070Z,10.000250182901336
2022-09-29T23:58:08.750Z,9.943671613712375
